sensor_id;sensor_type;location;lat;lon;timestamp;pressure;altitude;pressure_sealevel;temperature;humidity
70103;BME280;57470;50.034;15.256;2023-01-30T00:00:34;99763.28;;;-3.25;92.02
70103;BME280;57470;50.034;15.256;2023-01-30T00:03:00;99760.69;;;-3.28;91.95
70103;BME280;57470;50.034;15.256;2023-01-30T00:05:26;99752.09;;;-3.33;91.91
70103;BME280;57470;50.034;15.256;2023-01-30T00:07:51;99740.88;;;-3.41;92.16
70103;BME280;57470;50.034;15.256;2023-01-30T00:10:18;99750.31;;;-3.29;91.83
70103;BME280;57470;50.034;15.256;2023-01-30T00:12:44;99746.72;;;-3.15;91.13
70103;BME280;57470;50.034;15.256;2023-01-30T00:15:09;99738.00;;;-3.12;90.72
70103;BME280;57470;50.034;15.256;2023-01-30T00:17:35;99726.75;;;-3.13;89.92
70103;BME280;57470;50.034;15.256;2023-01-30T00:20:00;99730.88;;;-2.93;89.90
70103;BME280;57470;50.034;15.256;2023-01-30T00:22:26;99729.97;;;-2.86;89.57
70103;BME280;57470;50.034;15.256;2023-01-30T00:24:51;99726.53;;;-2.91;89.17
70103;BME280;57470;50.034;15.256;2023-01-30T00:27:17;99717.94;;;-2.99;89.31
70103;BME280;57470;50.034;15.256;2023-01-30T00:29:42;99706.56;;;-2.88;89.88
70103;BME280;57470;50.034;15.256;2023-01-30T00:32:07;99700.97;;;-3.37;90.50
70103;BME280;57470;50.034;15.256;2023-01-30T00:34:33;99698.25;;;-3.23;91.82
70103;BME280;57470;50.034;15.256;2023-01-30T00:36:58;99694.47;;;-2.93;90.88
70103;BME280;57470;50.034;15.256;2023-01-30T00:39:24;99689.22;;;-2.90;90.58
70103;BME280;57470;50.034;15.256;2023-01-30T00:41:49;99688.19;;;-2.77;89.49
70103;BME280;57470;50.034;15.256;2023-01-30T00:44:33;99680.47;;;-2.85;89.57
70103;BME280;57470;50.034;15.256;2023-01-30T00:47:17;99681.09;;;-2.61;89.73
70103;BME280;57470;50.034;15.256;2023-01-30T00:49:43;99685.44;;;-2.60;89.02
70103;BME280;57470;50.034;15.256;2023-01-30T00:52:08;99669.81;;;-2.62;88.43
70103;BME280;57470;50.034;15.256;2023-01-30T00:54:33;99672.44;;;-2.63;88.26
70103;BME280;57470;50.034;15.256;2023-01-30T00:56:59;99660.41;;;-2.75;88.30
70103;BME280;57470;50.034;15.256;2023-01-30T00:59:26;99659.75;;;-2.91;88.79
70103;BME280;57470;50.034;15.256;2023-01-30T01:01:52;99658.81;;;-2.85;89.48
70103;BME280;57470;50.034;15.256;2023-01-30T01:04:17;99653.75;;;-2.96;89.46
70103;BME280;57470;50.034;15.256;2023-01-30T01:06:42;99647.00;;;-3.15;90.30
70103;BME280;57470;50.034;15.256;2023-01-30T01:09:08;99646.75;;;-2.92;90.23
70103;BME280;57470;50.034;15.256;2023-01-30T01:11:34;99642.53;;;-3.04;90.00
70103;BME280;57470;50.034;15.256;2023-01-30T01:14:00;99637.34;;;-3.04;90.40
70103;BME280;57470;50.034;15.256;2023-01-30T01:16:26;99638.94;;;-2.94;90.25
70103;BME280;57470;50.034;15.256;2023-01-30T01:18:53;99638.06;;;-2.90;90.63
70103;BME280;57470;50.034;15.256;2023-01-30T01:21:20;99636.28;;;-2.86;90.19
70103;BME280;57470;50.034;15.256;2023-01-30T01:23:53;99631.03;;;-2.83;89.75
70103;BME280;57470;50.034;15.256;2023-01-30T01:26:19;99632.72;;;-2.79;89.79
70103;BME280;57470;50.034;15.256;2023-01-30T01:28:45;99620.69;;;-2.88;89.87
70103;BME280;57470;50.034;15.256;2023-01-30T01:31:12;99628.44;;;-2.85;89.99
70103;BME280;57470;50.034;15.256;2023-01-30T01:33:38;99616.47;;;-2.98;90.06
70103;BME280;57470;50.034;15.256;2023-01-30T01:36:04;99615.38;;;-2.80;90.84
70103;BME280;57470;50.034;15.256;2023-01-30T01:38:30;99611.97;;;-2.85;90.33
70103;BME280;57470;50.034;15.256;2023-01-30T01:40:56;99610.31;;;-2.92;90.60
70103;BME280;57470;50.034;15.256;2023-01-30T01:43:30;99601.72;;;-2.97;90.98
70103;BME280;57470;50.034;15.256;2023-01-30T01:46:01;99616.31;;;-2.86;91.33
70103;BME280;57470;50.034;15.256;2023-01-30T01:48:51;99602.47;;;-2.86;91.09
70103;BME280;57470;50.034;15.256;2023-01-30T01:51:24;99603.25;;;-2.81;90.92
70103;BME280;57470;50.034;15.256;2023-01-30T01:56:26;99595.47;;;-2.86;91.64
70103;BME280;57470;50.034;15.256;2023-01-30T01:58:55;99590.44;;;-2.96;92.72
70103;BME280;57470;50.034;15.256;2023-01-30T02:01:22;99593.72;;;-2.82;92.65
70103;BME280;57470;50.034;15.256;2023-01-30T02:03:53;99591.09;;;-2.81;91.82
70103;BME280;57470;50.034;15.256;2023-01-30T02:06:21;99582.53;;;-2.89;91.45
70103;BME280;57470;50.034;15.256;2023-01-30T02:08:52;99581.53;;;-2.79;91.30
70103;BME280;57470;50.034;15.256;2023-01-30T02:13:51;99568.69;;;-2.92;90.54
70103;BME280;57470;50.034;15.256;2023-01-30T02:16:17;99569.63;;;-2.98;90.97
70103;BME280;57470;50.034;15.256;2023-01-30T02:18:44;99565.41;;;-3.07;90.92
70103;BME280;57470;50.034;15.256;2023-01-30T02:26:55;99561.22;;;-3.20;90.86
70103;BME280;57470;50.034;15.256;2023-01-30T02:38:15;99531.94;;;-3.35;91.21
70103;BME280;57470;50.034;15.256;2023-01-30T02:41:01;99526.75;;;-3.35;91.44
70103;BME280;57470;50.034;15.256;2023-01-30T02:46:25;99516.31;;;-3.32;91.98
70103;BME280;57470;50.034;15.256;2023-01-30T02:49:13;99518.75;;;-3.22;92.42
70103;BME280;57470;50.034;15.256;2023-01-30T02:51:41;99511.00;;;-3.23;92.24
70103;BME280;57470;50.034;15.256;2023-01-30T02:54:12;99493.94;;;-3.47;93.87
70103;BME280;57470;50.034;15.256;2023-01-30T02:56:57;99494.00;;;-3.52;94.74
70103;BME280;57470;50.034;15.256;2023-01-30T03:10:48;99462.84;;;-3.56;97.44
70103;BME280;57470;50.034;15.256;2023-01-30T03:16:07;99445.31;;;-3.39;97.23
70103;BME280;57470;50.034;15.256;2023-01-30T03:18:35;99453.59;;;-3.11;97.15
70103;BME280;57470;50.034;15.256;2023-01-30T03:21:05;99454.97;;;-2.86;96.03
70103;BME280;57470;50.034;15.256;2023-01-30T03:23:32;99437.50;;;-2.78;95.39
70103;BME280;57470;50.034;15.256;2023-01-30T03:26:00;99418.75;;;-2.99;96.28
70103;BME280;57470;50.034;15.256;2023-01-30T03:28:29;99421.59;;;-3.16;97.41
70103;BME280;57470;50.034;15.256;2023-01-30T03:30:56;99415.41;;;-3.08;97.98
70103;BME280;57470;50.034;15.256;2023-01-30T03:33:23;99408.91;;;-2.79;97.25
70103;BME280;57470;50.034;15.256;2023-01-30T03:35:50;99390.75;;;-2.85;96.88
70103;BME280;57470;50.034;15.256;2023-01-30T03:38:15;99385.94;;;-3.10;98.30
70103;BME280;57470;50.034;15.256;2023-01-30T03:40:42;99384.34;;;-2.63;97.67
70103;BME280;57470;50.034;15.256;2023-01-30T03:43:08;99387.66;;;-2.55;97.63
70103;BME280;57470;50.034;15.256;2023-01-30T03:45:33;99386.53;;;-2.40;96.77
70103;BME280;57470;50.034;15.256;2023-01-30T03:47:58;99401.63;;;-2.11;96.05
70103;BME280;57470;50.034;15.256;2023-01-30T03:50:24;99422.13;;;-1.93;95.56
70103;BME280;57470;50.034;15.256;2023-01-30T03:52:49;99426.09;;;-1.74;94.83
70103;BME280;57470;50.034;15.256;2023-01-30T03:55:15;99421.38;;;-1.55;93.10
70103;BME280;57470;50.034;15.256;2023-01-30T03:57:40;99415.09;;;-1.45;92.49
70103;BME280;57470;50.034;15.256;2023-01-30T04:00:06;99417.56;;;-1.39;92.18
70103;BME280;57470;50.034;15.256;2023-01-30T04:02:32;99415.56;;;-1.26;91.45
70103;BME280;57470;50.034;15.256;2023-01-30T04:04:57;99415.44;;;-1.22;91.02
70103;BME280;57470;50.034;15.256;2023-01-30T04:07:22;99410.94;;;-1.15;90.37
70103;BME280;57470;50.034;15.256;2023-01-30T04:09:48;99402.16;;;-1.11;90.76
70103;BME280;57470;50.034;15.256;2023-01-30T04:12:13;99401.09;;;-1.02;90.18
70103;BME280;57470;50.034;15.256;2023-01-30T04:14:38;99393.91;;;-0.93;89.89
70103;BME280;57470;50.034;15.256;2023-01-30T04:17:04;99389.50;;;-0.91;89.64
70103;BME280;57470;50.034;15.256;2023-01-30T04:19:29;99367.34;;;-1.10;90.12
70103;BME280;57470;50.034;15.256;2023-01-30T04:21:55;99354.84;;;-0.97;89.82
70103;BME280;57470;50.034;15.256;2023-01-30T04:24:20;99340.78;;;-0.90;89.61
70103;BME280;57470;50.034;15.256;2023-01-30T04:26:46;99338.78;;;-0.81;89.00
70103;BME280;57470;50.034;15.256;2023-01-30T04:29:11;99326.09;;;-0.96;89.67
70103;BME280;57470;50.034;15.256;2023-01-30T04:31:36;99325.44;;;-1.04;88.99
70103;BME280;57470;50.034;15.256;2023-01-30T04:34:02;99326.88;;;-0.92;88.84
70103;BME280;57470;50.034;15.256;2023-01-30T04:36:27;99321.56;;;-0.89;88.96
70103;BME280;57470;50.034;15.256;2023-01-30T04:38:53;99316.06;;;-0.77;88.34
70103;BME280;57470;50.034;15.256;2023-01-30T04:41:19;99303.06;;;-0.80;88.51
70103;BME280;57470;50.034;15.256;2023-01-30T04:43:44;99298.44;;;-0.69;88.39
70103;BME280;57470;50.034;15.256;2023-01-30T04:46:09;99303.41;;;-0.60;87.86
70103;BME280;57470;50.034;15.256;2023-01-30T04:48:35;99286.13;;;-0.64;87.53
70103;BME280;57470;50.034;15.256;2023-01-30T04:51:00;99277.50;;;-0.67;87.16
70103;BME280;57470;50.034;15.256;2023-01-30T04:53:26;99273.88;;;-0.62;87.19
70103;BME280;57470;50.034;15.256;2023-01-30T04:55:51;99263.38;;;-0.60;87.23
70103;BME280;57470;50.034;15.256;2023-01-30T04:58:16;99262.63;;;-0.64;86.66
70103;BME280;57470;50.034;15.256;2023-01-30T05:00:44;99260.06;;;-0.65;87.71
70103;BME280;57470;50.034;15.256;2023-01-30T05:03:09;99250.91;;;-0.49;87.13
70103;BME280;57470;50.034;15.256;2023-01-30T05:05:35;99244.09;;;-0.55;86.88
70103;BME280;57470;50.034;15.256;2023-01-30T05:08:00;99224.34;;;-0.34;86.77
70103;BME280;57470;50.034;15.256;2023-01-30T05:10:26;99226.94;;;-0.34;86.14
70103;BME280;57470;50.034;15.256;2023-01-30T05:12:51;99222.16;;;-0.49;86.71
70103;BME280;57470;50.034;15.256;2023-01-30T05:15:17;99231.94;;;-0.56;87.52
70103;BME280;57470;50.034;15.256;2023-01-30T05:17:42;99229.75;;;-0.40;86.97
70103;BME280;57470;50.034;15.256;2023-01-30T05:20:09;99235.78;;;-0.38;86.71
70103;BME280;57470;50.034;15.256;2023-01-30T05:22:34;99233.88;;;-0.33;87.25
70103;BME280;57470;50.034;15.256;2023-01-30T05:25:00;99230.44;;;-0.35;87.04
70103;BME280;57470;50.034;15.256;2023-01-30T05:27:25;99226.59;;;-0.53;87.14
70103;BME280;57470;50.034;15.256;2023-01-30T05:29:51;99230.69;;;-0.43;87.21
70103;BME280;57470;50.034;15.256;2023-01-30T05:32:18;99233.00;;;-0.32;87.04
70103;BME280;57470;50.034;15.256;2023-01-30T05:34:43;99226.78;;;-0.28;87.04
70103;BME280;57470;50.034;15.256;2023-01-30T05:37:10;99232.81;;;-0.26;87.00
70103;BME280;57470;50.034;15.256;2023-01-30T05:39:36;99238.63;;;-0.16;87.14
70103;BME280;57470;50.034;15.256;2023-01-30T05:42:02;99237.03;;;-0.20;87.56
70103;BME280;57470;50.034;15.256;2023-01-30T05:44:27;99221.72;;;-0.05;86.95
70103;BME280;57470;50.034;15.256;2023-01-30T05:46:53;99228.06;;;-0.12;86.92
70103;BME280;57470;50.034;15.256;2023-01-30T05:49:18;99231.13;;;0.01;86.77
70103;BME280;57470;50.034;15.256;2023-01-30T05:51:43;99215.22;;;-0.19;86.45
70103;BME280;57470;50.034;15.256;2023-01-30T05:54:09;99213.53;;;-0.22;87.17
70103;BME280;57470;50.034;15.256;2023-01-30T05:56:34;99199.97;;;-0.05;87.05
70103;BME280;57470;50.034;15.256;2023-01-30T05:59:00;99198.84;;;0.04;87.15
70103;BME280;57470;50.034;15.256;2023-01-30T06:01:27;99199.31;;;0.16;87.10
70103;BME280;57470;50.034;15.256;2023-01-30T06:03:53;99189.81;;;0.14;86.87
70103;BME280;57470;50.034;15.256;2023-01-30T06:06:18;99187.88;;;0.19;87.15
70103;BME280;57470;50.034;15.256;2023-01-30T06:08:44;99182.66;;;0.19;86.74
70103;BME280;57470;50.034;15.256;2023-01-30T06:11:15;99181.09;;;0.13;86.92
70103;BME280;57470;50.034;15.256;2023-01-30T06:13:41;99165.31;;;0.16;86.90
70103;BME280;57470;50.034;15.256;2023-01-30T06:16:09;99168.94;;;0.12;87.57
70103;BME280;57470;50.034;15.256;2023-01-30T06:18:36;99161.97;;;0.11;87.28
70103;BME280;57470;50.034;15.256;2023-01-30T06:21:02;99165.28;;;0.18;87.45
70103;BME280;57470;50.034;15.256;2023-01-30T06:23:28;99157.72;;;0.09;87.73
70103;BME280;57470;50.034;15.256;2023-01-30T06:25:54;99146.63;;;0.00;87.76
70103;BME280;57470;50.034;15.256;2023-01-30T06:28:21;99155.13;;;0.09;88.26
70103;BME280;57470;50.034;15.256;2023-01-30T06:30:47;99144.88;;;0.01;88.28
70103;BME280;57470;50.034;15.256;2023-01-30T06:33:12;99139.22;;;-0.13;88.86
70103;BME280;57470;50.034;15.256;2023-01-30T06:35:39;99126.63;;;-0.28;89.74
70103;BME280;57470;50.034;15.256;2023-01-30T06:38:05;99122.03;;;-0.20;89.88
70103;BME280;57470;50.034;15.256;2023-01-30T06:40:33;99140.13;;;-0.14;89.95
70103;BME280;57470;50.034;15.256;2023-01-30T06:42:59;99129.13;;;0.03;89.59
70103;BME280;57470;50.034;15.256;2023-01-30T06:45:24;99124.78;;;0.03;89.56
70103;BME280;57470;50.034;15.256;2023-01-30T06:47:52;99120.97;;;0.13;89.09
70103;BME280;57470;50.034;15.256;2023-01-30T06:50:20;99120.91;;;0.15;89.23
70103;BME280;57470;50.034;15.256;2023-01-30T06:52:47;99118.94;;;0.21;88.83
70103;BME280;57470;50.034;15.256;2023-01-30T06:55:16;99103.72;;;0.08;88.09
70103;BME280;57470;50.034;15.256;2023-01-30T06:57:42;99095.41;;;-0.05;88.86
70103;BME280;57470;50.034;15.256;2023-01-30T07:00:10;99089.31;;;-0.06;89.48
70103;BME280;57470;50.034;15.256;2023-01-30T07:02:36;99082.00;;;0.06;89.13
70103;BME280;57470;50.034;15.256;2023-01-30T07:05:02;99096.00;;;0.03;89.39
70103;BME280;57470;50.034;15.256;2023-01-30T07:07:28;99090.75;;;0.05;89.38
70103;BME280;57470;50.034;15.256;2023-01-30T07:09:55;99092.50;;;0.04;89.70
70103;BME280;57470;50.034;15.256;2023-01-30T07:12:20;99092.66;;;-0.01;89.49
70103;BME280;57470;50.034;15.256;2023-01-30T07:14:46;99083.59;;;0.10;89.33
70103;BME280;57470;50.034;15.256;2023-01-30T07:17:11;99082.66;;;0.12;89.24
70103;BME280;57470;50.034;15.256;2023-01-30T07:19:37;99084.44;;;0.10;88.97
70103;BME280;57470;50.034;15.256;2023-01-30T07:22:03;99095.06;;;0.32;88.20
70103;BME280;57470;50.034;15.256;2023-01-30T07:24:29;99101.88;;;0.36;88.47
70103;BME280;57470;50.034;15.256;2023-01-30T07:26:54;99089.84;;;0.32;88.53
70103;BME280;57470;50.034;15.256;2023-01-30T07:29:19;99082.69;;;0.37;88.49
70103;BME280;57470;50.034;15.256;2023-01-30T07:31:45;99084.34;;;0.40;88.55
70103;BME280;57470;50.034;15.256;2023-01-30T07:34:10;99075.81;;;0.34;89.08
70103;BME280;57470;50.034;15.256;2023-01-30T07:36:35;99077.25;;;0.43;88.47
70103;BME280;57470;50.034;15.256;2023-01-30T07:39:02;99070.50;;;0.36;88.60
70103;BME280;57470;50.034;15.256;2023-01-30T07:41:28;99059.03;;;0.40;88.45
70103;BME280;57470;50.034;15.256;2023-01-30T07:43:53;99061.66;;;0.40;88.66
70103;BME280;57470;50.034;15.256;2023-01-30T07:46:19;99045.06;;;0.41;89.08
70103;BME280;57470;50.034;15.256;2023-01-30T07:48:45;99048.84;;;0.57;88.60
70103;BME280;57470;50.034;15.256;2023-01-30T07:51:11;99049.03;;;0.53;88.56
70103;BME280;57470;50.034;15.256;2023-01-30T07:53:36;99045.22;;;0.61;89.00
70103;BME280;57470;50.034;15.256;2023-01-30T07:56:06;99041.38;;;0.71;89.02
70103;BME280;57470;50.034;15.256;2023-01-30T07:58:32;99032.69;;;0.71;88.97
70103;BME280;57470;50.034;15.256;2023-01-30T08:00:57;99027.31;;;0.74;89.39
70103;BME280;57470;50.034;15.256;2023-01-30T08:03:23;99032.78;;;0.91;89.16
70103;BME280;57470;50.034;15.256;2023-01-30T08:05:48;99032.72;;;0.93;89.30
70103;BME280;57470;50.034;15.256;2023-01-30T08:08:14;99032.63;;;0.96;89.22
70103;BME280;57470;50.034;15.256;2023-01-30T08:10:39;99015.03;;;0.99;89.41
70103;BME280;57470;50.034;15.256;2023-01-30T08:13:05;99028.81;;;1.04;89.58
70103;BME280;57470;50.034;15.256;2023-01-30T08:15:30;99027.16;;;1.25;89.28
70103;BME280;57470;50.034;15.256;2023-01-30T08:17:58;99022.88;;;1.23;88.97
70103;BME280;57470;50.034;15.256;2023-01-30T08:20:25;99003.75;;;1.21;88.77
70103;BME280;57470;50.034;15.256;2023-01-30T08:22:52;99015.09;;;1.21;88.76
70103;BME280;57470;50.034;15.256;2023-01-30T08:25:17;99010.41;;;1.29;88.65
70103;BME280;57470;50.034;15.256;2023-01-30T08:27:43;99023.03;;;1.41;88.85
70103;BME280;57470;50.034;15.256;2023-01-30T08:30:09;99017.81;;;1.41;88.58
70103;BME280;57470;50.034;15.256;2023-01-30T08:32:35;99012.56;;;1.41;88.59
70103;BME280;57470;50.034;15.256;2023-01-30T08:35:00;99013.22;;;1.46;88.87
70103;BME280;57470;50.034;15.256;2023-01-30T08:37:26;99009.81;;;1.44;88.66
70103;BME280;57470;50.034;15.256;2023-01-30T08:39:51;99007.94;;;1.48;88.53
70103;BME280;57470;50.034;15.256;2023-01-30T08:42:17;99018.03;;;1.57;88.45
70103;BME280;57470;50.034;15.256;2023-01-30T08:44:42;99014.22;;;1.66;88.33
70103;BME280;57470;50.034;15.256;2023-01-30T08:47:07;99006.22;;;1.69;88.15
70103;BME280;57470;50.034;15.256;2023-01-30T08:49:33;99003.94;;;1.81;87.91
70103;BME280;57470;50.034;15.256;2023-01-30T08:51:58;99007.09;;;1.89;88.14
70103;BME280;57470;50.034;15.256;2023-01-30T08:54:23;99001.22;;;1.84;88.99
70103;BME280;57470;50.034;15.256;2023-01-30T08:56:49;98997.16;;;1.77;90.66
70103;BME280;57470;50.034;15.256;2023-01-30T08:59:14;98991.75;;;1.80;91.80
70103;BME280;57470;50.034;15.256;2023-01-30T09:01:39;98996.59;;;1.69;93.54
70103;BME280;57470;50.034;15.256;2023-01-30T09:04:05;98991.47;;;1.66;94.82
70103;BME280;57470;50.034;15.256;2023-01-30T09:06:30;98980.44;;;1.58;96.20
70103;BME280;57470;50.034;15.256;2023-01-30T09:08:55;98979.38;;;1.62;97.14
70103;BME280;57470;50.034;15.256;2023-01-30T09:11:21;98983.19;;;1.55;97.34
70103;BME280;57470;50.034;15.256;2023-01-30T09:13:46;98989.38;;;1.52;97.62
70103;BME280;57470;50.034;15.256;2023-01-30T09:16:12;98992.94;;;1.52;98.21
70103;BME280;57470;50.034;15.256;2023-01-30T09:18:41;98988.47;;;1.32;99.60
70103;BME280;57470;50.034;15.256;2023-01-30T09:21:09;98983.84;;;1.38;100.00
70103;BME280;57470;50.034;15.256;2023-01-30T09:23:35;98992.66;;;1.36;100.00
70103;BME280;57470;50.034;15.256;2023-01-30T09:26:01;98976.53;;;1.46;100.00
70103;BME280;57470;50.034;15.256;2023-01-30T09:28:27;98982.06;;;1.17;100.00
70103;BME280;57470;50.034;15.256;2023-01-30T09:30:58;98967.44;;;1.11;100.00
70103;BME280;57470;50.034;15.256;2023-01-30T09:33:24;98973.78;;;1.06;100.00
70103;BME280;57470;50.034;15.256;2023-01-30T09:35:50;98969.53;;;1.25;100.00
70103;BME280;57470;50.034;15.256;2023-01-30T09:38:17;98968.59;;;1.26;100.00
70103;BME280;57470;50.034;15.256;2023-01-30T09:40:53;98966.47;;;1.36;100.00
70103;BME280;57470;50.034;15.256;2023-01-30T09:46:17;98961.88;;;1.42;100.00
70103;BME280;57470;50.034;15.256;2023-01-30T09:54:29;98948.56;;;1.69;100.00
70103;BME280;57470;50.034;15.256;2023-01-30T09:57:18;98936.13;;;1.94;100.00
70103;BME280;57470;50.034;15.256;2023-01-30T09:59:49;98925.25;;;2.03;99.84
70103;BME280;57470;50.034;15.256;2023-01-30T10:02:52;98934.22;;;2.18;98.86
70103;BME280;57470;50.034;15.256;2023-01-30T10:05:29;98923.22;;;2.30;97.83
70103;BME280;57470;50.034;15.256;2023-01-30T10:16:31;98910.75;;;2.54;95.14
70103;BME280;57470;50.034;15.256;2023-01-30T10:19:15;98891.59;;;2.52;94.74
70103;BME280;57470;50.034;15.256;2023-01-30T10:22:01;98896.28;;;2.64;93.72
70103;BME280;57470;50.034;15.256;2023-01-30T10:26:59;98892.34;;;2.74;92.66
70103;BME280;57470;50.034;15.256;2023-01-30T10:29:30;98885.09;;;2.79;93.15
70103;BME280;57470;50.034;15.256;2023-01-30T10:34:40;98893.81;;;2.80;91.98
70103;BME280;57470;50.034;15.256;2023-01-30T10:37:25;98888.13;;;2.70;92.15
70103;BME280;57470;50.034;15.256;2023-01-30T10:40:03;98882.03;;;2.70;92.44
70103;BME280;57470;50.034;15.256;2023-01-30T10:45:38;98880.00;;;2.76;91.52
70103;BME280;57470;50.034;15.256;2023-01-30T10:48:17;98879.56;;;2.85;91.94
70103;BME280;57470;50.034;15.256;2023-01-30T10:51:02;98879.19;;;2.74;91.63
70103;BME280;57470;50.034;15.256;2023-01-30T10:53:41;98870.59;;;2.71;92.51
70103;BME280;57470;50.034;15.256;2023-01-30T10:56:17;98866.88;;;2.76;93.07
70103;BME280;57470;50.034;15.256;2023-01-30T10:58:53;98866.75;;;2.78;93.52
70103;BME280;57470;50.034;15.256;2023-01-30T11:01:27;98850.25;;;2.76;94.59
70103;BME280;57470;50.034;15.256;2023-01-30T11:04:02;98851.97;;;2.58;94.95
70103;BME280;57470;50.034;15.256;2023-01-30T11:06:29;98852.72;;;2.60;95.52
70103;BME280;57470;50.034;15.256;2023-01-30T11:08:56;98852.16;;;2.72;95.29
70103;BME280;57470;50.034;15.256;2023-01-30T11:14:15;98841.78;;;2.88;94.21
70103;BME280;57470;50.034;15.256;2023-01-30T11:16:58;98841.16;;;2.83;93.61
70103;BME280;57470;50.034;15.256;2023-01-30T11:19:31;98840.22;;;3.03;92.34
70103;BME280;57470;50.034;15.256;2023-01-30T11:22:04;98836.72;;;3.02;91.91
70103;BME280;57470;50.034;15.256;2023-01-30T11:24:39;98833.00;;;3.06;91.50
70103;BME280;57470;50.034;15.256;2023-01-30T11:27:25;98835.34;;;2.95;90.87
70103;BME280;57470;50.034;15.256;2023-01-30T11:30:03;98829.84;;;2.99;91.00
70103;BME280;57470;50.034;15.256;2023-01-30T11:32:29;98821.38;;;3.12;90.47
70103;BME280;57470;50.034;15.256;2023-01-30T11:37:35;98807.94;;;3.69;90.65
70103;BME280;57470;50.034;15.256;2023-01-30T11:42:57;98804.63;;;3.49;90.00
70103;BME280;57470;50.034;15.256;2023-01-30T11:45:24;98806.03;;;3.56;88.84
70103;BME280;57470;50.034;15.256;2023-01-30T11:47:56;98808.25;;;3.46;88.30
70103;BME280;57470;50.034;15.256;2023-01-30T11:50:42;98799.13;;;3.53;88.68
70103;BME280;57470;50.034;15.256;2023-01-30T11:53:22;98806.50;;;3.47;88.34
70103;BME280;57470;50.034;15.256;2023-01-30T11:55:50;98792.56;;;3.45;88.70
70103;BME280;57470;50.034;15.256;2023-01-30T11:58:16;98794.03;;;3.50;88.45
70103;BME280;57470;50.034;15.256;2023-01-30T12:00:46;98796.44;;;3.55;87.89
70103;BME280;57470;50.034;15.256;2023-01-30T12:03:18;98796.13;;;3.44;88.29
70103;BME280;57470;50.034;15.256;2023-01-30T12:05:48;98794.34;;;3.61;87.71
70103;BME280;57470;50.034;15.256;2023-01-30T12:10:51;98791.47;;;3.83;87.02
70103;BME280;57470;50.034;15.256;2023-01-30T12:13:40;98788.50;;;3.89;86.82
70103;BME280;57470;50.034;15.256;2023-01-30T12:21:45;98776.63;;;3.65;86.14
70103;BME280;57470;50.034;15.256;2023-01-30T12:24:24;98778.03;;;3.55;86.19
70103;BME280;57470;50.034;15.256;2023-01-30T12:26:57;98770.53;;;3.47;86.80
70103;BME280;57470;50.034;15.256;2023-01-30T12:29:34;98775.34;;;3.39;87.34
70103;BME280;57470;50.034;15.256;2023-01-30T12:32:11;98777.00;;;3.40;87.72
70103;BME280;57470;50.034;15.256;2023-01-30T12:34:38;98773.53;;;3.22;89.35
70103;BME280;57470;50.034;15.256;2023-01-30T12:37:34;98783.19;;;3.05;90.26
70103;BME280;57470;50.034;15.256;2023-01-30T12:45:58;98760.75;;;2.80;96.17
70103;BME280;57470;50.034;15.256;2023-01-30T12:54:02;98766.81;;;2.99;94.67
70103;BME280;57470;50.034;15.256;2023-01-30T12:59:13;98755.91;;;3.07;93.65
70103;BME280;57470;50.034;15.256;2023-01-30T13:05:14;98752.91;;;3.15;92.34
70103;BME280;57470;50.034;15.256;2023-01-30T13:07:45;98765.44;;;3.10;93.45
70103;BME280;57470;50.034;15.256;2023-01-30T13:10:35;98757.63;;;3.08;94.32
70103;BME280;57470;50.034;15.256;2023-01-30T13:13:30;98757.47;;;2.94;94.26
70103;BME280;57470;50.034;15.256;2023-01-30T13:18:50;98760.38;;;3.05;95.17
70103;BME280;57470;50.034;15.256;2023-01-30T13:21:28;98750.25;;;2.97;95.89
70103;BME280;57470;50.034;15.256;2023-01-30T13:26:33;98764.56;;;3.09;95.82
70103;BME280;57470;50.034;15.256;2023-01-30T13:29:22;98770.88;;;3.05;96.68
70103;BME280;57470;50.034;15.256;2023-01-30T13:31:54;98772.66;;;3.05;97.05
70103;BME280;57470;50.034;15.256;2023-01-30T13:34:28;98773.25;;;3.11;97.10
70103;BME280;57470;50.034;15.256;2023-01-30T13:37:08;98771.91;;;3.03;97.75
70103;BME280;57470;50.034;15.256;2023-01-30T13:42:28;98781.72;;;2.99;97.29
70103;BME280;57470;50.034;15.256;2023-01-30T13:44:56;98783.25;;;2.86;97.46
70103;BME280;57470;50.034;15.256;2023-01-30T13:53:28;98777.41;;;2.79;97.61
70103;BME280;57470;50.034;15.256;2023-01-30T13:56:03;98768.69;;;2.79;97.95
70103;BME280;57470;50.034;15.256;2023-01-30T13:59:01;98759.28;;;2.75;98.51
70103;BME280;57470;50.034;15.256;2023-01-30T14:10:40;98758.00;;;3.18;97.76
70103;BME280;57470;50.034;15.256;2023-01-30T14:12:38;98757.41;;;3.13;96.53
70103;BME280;57470;50.034;15.256;2023-01-30T14:15:20;98754.38;;;3.20;95.61
70103;BME280;57470;50.034;15.256;2023-01-30T14:20:24;98758.94;;;3.34;95.00
70103;BME280;57470;50.034;15.256;2023-01-30T14:22:54;98751.28;;;3.12;94.39
70103;BME280;57470;50.034;15.256;2023-01-30T14:33:00;98764.59;;;3.76;92.19
70103;BME280;57470;50.034;15.256;2023-01-30T14:35:28;98767.81;;;3.99;91.20
70103;BME280;57470;50.034;15.256;2023-01-30T14:38:14;98763.69;;;4.10;90.36
70103;BME280;57470;50.034;15.256;2023-01-30T14:51:35;98770.97;;;3.72;89.69
70103;BME280;57470;50.034;15.256;2023-01-30T14:59:16;98782.81;;;3.64;88.95
70103;BME280;57470;50.034;15.256;2023-01-30T15:04:21;98796.50;;;3.70;88.74
70103;BME280;57470;50.034;15.256;2023-01-30T15:06:47;98790.44;;;3.68;88.20
70103;BME280;57470;50.034;15.256;2023-01-30T15:09:18;98794.72;;;3.71;88.23
70103;BME280;57470;50.034;15.256;2023-01-30T15:11:53;98795.72;;;3.68;88.38
70103;BME280;57470;50.034;15.256;2023-01-30T15:14:27;98789.53;;;3.52;88.98
70103;BME280;57470;50.034;15.256;2023-01-30T15:20:08;98792.31;;;3.49;89.10
70103;BME280;57470;50.034;15.256;2023-01-30T15:23:05;98806.25;;;3.34;89.85
70103;BME280;57470;50.034;15.256;2023-01-30T15:31:21;98795.66;;;3.35;89.65
70103;BME280;57470;50.034;15.256;2023-01-30T15:33:53;98806.94;;;3.37;89.46
70103;BME280;57470;50.034;15.256;2023-01-30T15:36:30;98798.44;;;3.32;89.96
70103;BME280;57470;50.034;15.256;2023-01-30T15:38:58;98792.50;;;3.29;90.01
70103;BME280;57470;50.034;15.256;2023-01-30T15:41:24;98790.94;;;3.25;89.49